createdAt,value
2022-09-14T00:00:07.100Z,74.17
2022-09-14T00:01:26.838Z,74.09
2022-09-14T00:02:31.034Z,74.08
2022-09-14T00:03:35.416Z,74.20
2022-09-14T00:04:39.426Z,74.11
2022-09-14T00:05:44.152Z,74.38
2022-09-14T00:06:49.285Z,74.39
2022-09-14T00:07:52.914Z,74.77
2022-09-14T00:08:59.150Z,74.83
2022-09-14T00:10:03.110Z,74.63
2022-09-14T00:11:15.459Z,75.04
2022-09-14T00:12:20.357Z,75.05
2022-09-14T00:13:24.834Z,75.19
2022-09-14T00:14:28.620Z,75.17
2022-09-14T00:15:36.451Z,75.41
2022-09-14T00:16:43.483Z,75.67
2022-09-14T00:17:47.883Z,75.98
2022-09-14T00:18:54.067Z,75.94
2022-09-14T00:19:57.930Z,76.34
2022-09-14T00:21:05.185Z,76.55
2022-09-14T00:22:09.264Z,76.43
2022-09-14T00:23:12.844Z,76.70
2022-09-14T00:24:16.386Z,76.66
2022-09-14T00:25:20.369Z,77.16
2022-09-14T00:26:25.815Z,77.18
2022-09-14T00:27:29.851Z,77.16
2022-09-14T00:28:48.553Z,77.49
2022-09-14T00:29:53.178Z,77.31
2022-09-14T00:30:56.865Z,77.48
2022-09-14T00:32:00.773Z,77.53
2022-09-14T00:33:04.500Z,77.75
2022-09-14T00:34:14.255Z,77.75
2022-09-14T00:35:19.393Z,77.76
2022-09-14T00:36:29.412Z,77.81
2022-09-14T00:37:33.560Z,77.86
2022-09-14T00:38:39.232Z,77.66
2022-09-14T00:39:46.161Z,78.00
2022-09-14T00:41:04.457Z,78.00
2022-09-14T00:42:15.411Z,78.19
2022-09-14T00:43:21.103Z,78.12
2022-09-14T00:44:28.230Z,78.00
2022-09-14T00:45:32.460Z,78.30
2022-09-14T00:46:47.538Z,78.31
2022-09-14T00:47:55.118Z,78.65
2022-09-14T00:49:07.973Z,78.61
2022-09-14T00:50:14.010Z,78.95
2022-09-14T00:51:21.514Z,79.20
2022-09-14T00:52:31.299Z,79.19
2022-09-14T00:53:35.679Z,79.31
2022-09-14T00:54:47.343Z,79.31
2022-09-14T00:55:54.580Z,79.48
2022-09-14T00:57:04.343Z,79.59
2022-09-14T00:58:16.676Z,79.76
2022-09-14T00:59:39.444Z,79.85
2022-09-14T01:00:44.827Z,79.99
2022-09-14T01:01:50.902Z,80.12
2022-09-14T01:03:02.433Z,80.26
2022-09-14T01:04:09.511Z,80.33
2022-09-14T01:05:15.091Z,80.46
2022-09-14T01:06:39.568Z,80.68
2022-09-14T01:08:11.605Z,80.81
2022-09-14T01:10:08.236Z,81.19
2022-09-14T01:11:51.834Z,81.09
2022-09-14T01:13:32.783Z,81.42
2022-09-14T01:14:59.770Z,81.55
2022-09-14T01:17:11.108Z,81.63
2022-09-14T01:18:44.653Z,81.99
2022-09-14T01:20:11.047Z,81.84
2022-09-14T01:21:27.060Z,82.00
2022-09-14T01:22:59.103Z,82.27
2022-09-14T01:24:26.852Z,82.42
2022-09-14T01:26:04.224Z,82.90
2022-09-14T01:27:31.396Z,82.62
2022-09-14T01:28:50.391Z,82.58
2022-09-14T01:30:05.513Z,82.67
2022-09-14T01:31:41.262Z,82.84
2022-09-14T01:33:03.853Z,83.04
2022-09-14T01:34:25.659Z,83.13
2022-09-14T01:35:45.793Z,83.26
2022-09-14T01:36:59.461Z,83.25
2022-09-14T01:38:31.900Z,83.19
2022-09-14T01:39:38.541Z,83.32
2022-09-14T01:40:50.532Z,83.45
2022-09-14T01:41:56.628Z,83.44
2022-09-14T01:43:18.260Z,83.62
2022-09-14T01:44:34.713Z,83.95
2022-09-14T01:45:53.021Z,84.10
2022-09-14T01:47:09.200Z,83.96
2022-09-14T01:48:18.351Z,84.03
2022-09-14T01:49:52.899Z,84.17
2022-09-14T01:51:04.516Z,84.01
2022-09-14T01:52:27.478Z,84.29
2022-09-14T01:53:46.681Z,84.45
2022-09-14T01:55:10.035Z,84.65
2022-09-14T01:56:32.455Z,84.28
2022-09-14T01:57:58.987Z,84.27
2022-09-14T01:59:18.356Z,84.61
2022-09-14T02:00:23.107Z,84.48
2022-09-14T02:01:54.750Z,84.76
2022-09-14T02:03:14.076Z,84.84
2022-09-14T02:04:31.510Z,84.89
2022-09-14T02:05:57.911Z,84.85
2022-09-14T02:07:02.269Z,84.79
2022-09-14T02:08:06.156Z,85.20
2022-09-14T02:09:16.556Z,85.42
2022-09-14T02:10:20.544Z,85.03
2022-09-14T02:11:24.330Z,85.12
2022-09-14T02:12:28.489Z,85.22
2022-09-14T02:13:32.676Z,85.51
2022-09-14T02:14:36.644Z,85.48
2022-09-14T02:15:40.407Z,85.70
2022-09-14T02:16:46.458Z,85.53
2022-09-14T02:17:50.675Z,85.72
2022-09-14T02:18:54.545Z,86.07
2022-09-14T02:20:02.212Z,86.17
2022-09-14T02:21:14.690Z,86.19
2022-09-14T02:22:18.497Z,86.30
2022-09-14T02:23:50.770Z,86.23
2022-09-14T02:24:54.974Z,86.50
2022-09-14T02:26:07.743Z,86.44
2022-09-14T02:27:24.347Z,86.63
2022-09-14T02:28:53.018Z,86.57
2022-09-14T02:30:12.303Z,86.59
2022-09-14T02:32:15.238Z,87.16
2022-09-14T02:33:57.353Z,87.04
2022-09-14T02:35:42.985Z,87.50
2022-09-14T02:37:28.321Z,87.85
2022-09-14T02:38:45.959Z,87.77
2022-09-14T02:40:19.038Z,87.98
2022-09-14T02:41:42.273Z,87.70
2022-09-14T02:43:15.154Z,88.13
2022-09-14T02:44:47.313Z,88.11
2022-09-14T02:46:12.492Z,88.26
2022-09-14T02:47:40.554Z,88.06
2022-09-14T02:49:22.375Z,88.25
2022-09-14T02:50:36.966Z,88.02
2022-09-14T02:52:03.536Z,88.43
2022-09-14T02:53:32.140Z,88.39
2022-09-14T02:54:59.241Z,88.75
2022-09-14T02:56:09.826Z,88.44
2022-09-14T02:57:14.311Z,88.63
2022-09-14T02:58:18.086Z,88.62
2022-09-14T02:59:21.918Z,88.86
2022-09-14T03:00:25.725Z,88.94
2022-09-14T03:01:30.428Z,89.38
2022-09-14T03:02:34.195Z,89.65
2022-09-14T03:03:38.079Z,89.68
2022-09-14T03:04:42.349Z,89.94
2022-09-14T03:05:46.602Z,89.91
2022-09-14T03:06:50.223Z,90.02
2022-09-14T03:07:54.265Z,89.89
2022-09-14T03:08:58.737Z,89.99
2022-09-14T03:10:02.502Z,90.17
2022-09-14T03:11:07.094Z,90.20
2022-09-14T03:12:11.099Z,90.12
2022-09-14T03:13:14.986Z,90.28
2022-09-14T03:14:18.618Z,90.20
2022-09-14T03:15:22.476Z,90.33
2022-09-14T03:16:26.150Z,90.08
2022-09-14T03:17:29.757Z,90.36
2022-09-14T03:18:35.087Z,90.22
2022-09-14T03:19:38.699Z,90.25
2022-09-14T03:20:43.081Z,90.34
2022-09-14T03:21:46.677Z,90.45
2022-09-14T03:22:50.612Z,90.52
2022-09-14T03:23:55.723Z,90.67
2022-09-14T03:24:59.262Z,90.83
2022-09-14T03:26:11.331Z,90.79
2022-09-14T03:27:15.202Z,90.90
2022-09-14T03:28:18.716Z,90.97
2022-09-14T03:29:22.648Z,91.06
2022-09-14T03:30:27.840Z,91.10
2022-09-14T03:31:31.826Z,91.36
2022-09-14T03:32:35.882Z,91.37
2022-09-14T03:33:40.049Z,91.50
2022-09-14T03:34:43.831Z,91.92
2022-09-14T03:35:47.408Z,91.89
2022-09-14T03:36:51.133Z,91.68
2022-09-14T03:37:54.760Z,92.00
2022-09-14T03:39:01.880Z,92.08
2022-09-14T03:40:07.966Z,91.99
2022-09-14T03:41:13.357Z,91.95
2022-09-14T03:42:18.539Z,92.31
2022-09-14T03:43:22.573Z,92.61
2022-09-14T03:44:26.218Z,92.75
2022-09-14T03:45:29.981Z,92.79
2022-09-14T03:46:34.205Z,92.98
2022-09-14T03:47:38.530Z,93.09
2022-09-14T03:48:42.874Z,92.84
2022-09-14T03:49:46.421Z,93.31
2022-09-14T03:50:50.125Z,93.39
2022-09-14T03:51:59.029Z,93.19
2022-09-14T03:53:04.878Z,93.34
2022-09-14T03:54:08.746Z,93.28
2022-09-14T03:55:13.851Z,93.46
2022-09-14T03:56:21.237Z,93.50
2022-09-14T03:57:24.783Z,93.59
2022-09-14T03:58:32.526Z,93.61
2022-09-14T03:59:39.389Z,93.45
2022-09-14T04:00:46.747Z,93.51
2022-09-14T04:01:50.550Z,93.60
2022-09-14T04:02:54.304Z,93.66
2022-09-14T04:03:58.120Z,93.54
2022-09-14T04:05:01.715Z,93.57
2022-09-14T04:06:08.581Z,93.47
2022-09-14T04:07:16.106Z,93.53
2022-09-14T04:08:19.712Z,93.56
2022-09-14T04:09:33.078Z,93.47
2022-09-14T04:10:36.595Z,93.62
2022-09-14T04:11:40.292Z,93.68
2022-09-14T04:12:43.918Z,93.63
2022-09-14T04:13:48.501Z,93.88
2022-09-14T04:14:52.416Z,93.81
2022-09-14T04:16:02.813Z,93.72
2022-09-14T04:17:06.686Z,94.48
2022-09-14T04:18:10.431Z,94.37
2022-09-14T04:19:14.019Z,94.26
2022-09-14T04:20:20.905Z,94.22
2022-09-14T04:21:26.225Z,94.44
2022-09-14T04:22:29.858Z,94.49
2022-09-14T04:23:36.582Z,94.53
2022-09-14T04:24:51.285Z,94.40
2022-09-14T04:25:55.469Z,94.60
2022-09-14T04:26:59.093Z,94.36
2022-09-14T04:28:19.623Z,94.72
2022-09-14T04:29:24.544Z,94.46
2022-09-14T04:30:28.487Z,94.86
2022-09-14T04:31:33.448Z,94.55
2022-09-14T04:32:37.280Z,94.38
2022-09-14T04:33:43.720Z,94.71
2022-09-14T04:34:49.371Z,94.90
2022-09-14T04:36:11.817Z,94.75
2022-09-14T04:37:15.489Z,94.61
2022-09-14T04:38:19.102Z,94.65
2022-09-14T04:39:22.973Z,94.37
2022-09-14T04:40:29.157Z,94.51
2022-09-14T04:41:33.286Z,94.58
2022-09-14T04:42:36.874Z,94.31
2022-09-14T04:43:41.935Z,94.38
2022-09-14T04:44:45.953Z,94.23
2022-09-14T04:45:50.106Z,94.10
2022-09-14T04:46:54.111Z,94.05
2022-09-14T04:47:57.695Z,94.02
2022-09-14T04:49:01.606Z,94.29
2022-09-14T04:50:06.192Z,94.12
2022-09-14T04:51:19.838Z,93.92
2022-09-14T04:52:24.765Z,94.14
2022-09-14T04:53:28.296Z,94.14
2022-09-14T04:54:31.982Z,93.83
2022-09-14T04:55:36.401Z,93.93
2022-09-14T04:56:42.080Z,94.02
2022-09-14T04:57:46.312Z,93.99
2022-09-14T04:59:01.874Z,93.82
2022-09-14T05:00:06.326Z,94.11
2022-09-14T05:01:37.022Z,94.11
2022-09-14T05:02:42.929Z,94.01
2022-09-14T05:03:47.114Z,94.05
2022-09-14T05:04:51.189Z,94.12
2022-09-14T05:05:54.820Z,94.24
2022-09-14T05:06:58.728Z,94.27
2022-09-14T05:08:02.959Z,94.40
2022-09-14T05:09:15.764Z,93.85
2022-09-14T05:10:19.565Z,94.07
2022-09-14T05:11:28.049Z,94.02
2022-09-14T05:12:31.888Z,93.60
2022-09-14T05:13:36.379Z,93.73
2022-09-14T05:14:39.965Z,93.53
2022-09-14T05:15:43.604Z,93.50
2022-09-14T05:16:48.186Z,93.30
2022-09-14T05:17:51.679Z,93.18
2022-09-14T05:19:01.457Z,92.95
2022-09-14T05:20:06.670Z,92.92
2022-09-14T05:21:14.807Z,92.58
2022-09-14T05:22:22.465Z,92.67
2022-09-14T05:23:26.150Z,92.63
2022-09-14T05:24:29.863Z,92.47
2022-09-14T05:25:33.516Z,92.18
2022-09-14T05:26:37.338Z,91.87
2022-09-14T05:27:40.908Z,91.89
2022-09-14T05:28:51.078Z,91.85
2022-09-14T05:29:54.732Z,91.51
2022-09-14T05:30:58.693Z,91.29
2022-09-14T05:32:03.769Z,91.30
2022-09-14T05:33:07.455Z,90.85
2022-09-14T05:34:13.170Z,90.86
2022-09-14T05:35:17.124Z,90.55
2022-09-14T05:36:21.747Z,90.39
2022-09-14T05:37:25.624Z,90.34
2022-09-14T05:38:34.911Z,90.20
2022-09-14T05:39:39.072Z,90.15
2022-09-14T05:40:43.470Z,89.90
2022-09-14T05:41:51.911Z,89.96
2022-09-14T05:42:59.062Z,89.73
2022-09-14T05:44:18.316Z,89.61
2022-09-14T05:45:22.944Z,89.42
2022-09-14T05:46:27.529Z,89.16
2022-09-14T05:47:34.911Z,89.11
2022-09-14T05:48:43.945Z,89.03
2022-09-14T05:49:48.758Z,88.61
2022-09-14T05:51:03.773Z,88.42
2022-09-14T05:52:08.332Z,88.20
2022-09-14T05:53:12.691Z,88.10
2022-09-14T05:54:16.448Z,87.89
2022-09-14T05:55:20.319Z,87.40
2022-09-14T05:56:28.124Z,87.21
2022-09-14T05:57:34.691Z,86.79
2022-09-14T05:58:40.469Z,86.32
2022-09-14T05:59:44.539Z,86.05
2022-09-14T06:00:48.490Z,85.54
2022-09-14T06:01:52.412Z,84.92
2022-09-14T06:02:57.066Z,84.39
2022-09-14T06:04:02.615Z,84.00
2022-09-14T06:05:06.711Z,83.35
2022-09-14T06:06:14.067Z,82.66
2022-09-14T06:07:19.084Z,82.02
2022-09-14T06:08:24.742Z,81.28
2022-09-14T06:09:33.087Z,80.25
2022-09-14T06:10:37.037Z,78.82
2022-09-14T06:11:40.733Z,76.94
2022-09-14T06:12:44.452Z,75.43
2022-09-14T06:13:49.749Z,73.26
2022-09-14T06:14:53.283Z,71.67
2022-09-14T06:16:01.903Z,69.85
2022-09-14T06:17:05.895Z,68.52
2022-09-14T06:18:09.980Z,67.75
2022-09-14T06:19:15.550Z,67.55
2022-09-14T06:20:19.179Z,67.50
2022-09-14T06:21:23.789Z,67.42
2022-09-14T06:22:27.482Z,67.72
2022-09-14T06:23:33.006Z,67.91
2022-09-14T06:24:37.632Z,67.71
2022-09-14T06:25:41.472Z,67.65
2022-09-14T06:26:45.486Z,67.67
2022-09-14T06:27:49.332Z,67.38
2022-09-14T06:28:53.688Z,67.17
2022-09-14T06:29:57.559Z,66.96
2022-09-14T06:31:07.794Z,66.67
2022-09-14T06:32:11.547Z,66.70
2022-09-14T06:33:16.490Z,66.25
2022-09-14T06:34:25.709Z,65.61
2022-09-14T06:35:32.622Z,65.13
2022-09-14T06:36:37.630Z,64.27
2022-09-14T06:37:41.491Z,63.50
2022-09-14T06:38:46.850Z,63.00
2022-09-14T06:39:52.216Z,62.02
2022-09-14T06:40:59.325Z,61.08
2022-09-14T06:42:03.296Z,60.70
2022-09-14T06:43:07.083Z,59.74
2022-09-14T06:44:11.349Z,58.76
2022-09-14T06:45:15.340Z,58.51
2022-09-14T06:46:23.879Z,57.98
2022-09-14T06:47:33.417Z,57.07
2022-09-14T06:48:44.913Z,56.57
2022-09-14T06:49:50.077Z,55.81
2022-09-14T06:50:54.147Z,55.27
2022-09-14T06:51:58.133Z,55.29
2022-09-14T06:53:02.725Z,55.22
2022-09-14T06:54:07.380Z,54.85
2022-09-14T06:55:10.933Z,55.18
2022-09-14T06:56:15.463Z,54.89
2022-09-14T06:57:19.491Z,54.54
2022-09-14T06:58:23.290Z,54.37
2022-09-14T06:59:27.135Z,54.57
2022-09-14T07:00:31.549Z,54.39
2022-09-14T07:01:36.565Z,54.15
2022-09-14T07:02:40.509Z,54.07
2022-09-14T07:03:45.133Z,54.15
2022-09-14T07:04:48.649Z,53.46
2022-09-14T07:05:52.166Z,53.38
2022-09-14T07:06:55.683Z,52.27
2022-09-14T07:07:59.565Z,52.30
2022-09-14T07:09:05.227Z,51.50
2022-09-14T07:10:09.040Z,51.25
2022-09-14T07:11:15.043Z,50.67
2022-09-14T07:12:19.544Z,50.39
2022-09-14T07:13:23.974Z,50.53
2022-09-14T07:14:32.111Z,50.17
2022-09-14T07:15:38.708Z,50.05
2022-09-14T07:16:42.641Z,50.16
2022-09-14T07:17:47.274Z,50.07
2022-09-14T07:18:58.172Z,49.75
2022-09-14T07:20:03.592Z,49.83
2022-09-14T07:21:13.165Z,50.28
2022-09-14T07:22:16.758Z,50.88
2022-09-14T07:23:21.034Z,51.19
2022-09-14T07:24:24.885Z,51.44
2022-09-14T07:25:28.550Z,51.35
2022-09-14T07:26:44.780Z,50.92
2022-09-14T07:27:48.356Z,50.64
2022-09-14T07:28:59.769Z,50.40
2022-09-14T07:30:03.801Z,49.83
2022-09-14T07:31:21.767Z,49.94
2022-09-14T07:32:26.057Z,49.26
2022-09-14T07:33:30.282Z,49.27
2022-09-14T07:34:33.993Z,48.98
2022-09-14T07:35:37.894Z,48.85
2022-09-14T07:36:43.143Z,48.65
2022-09-14T07:37:47.021Z,48.55
2022-09-14T07:38:53.006Z,48.18
2022-09-14T07:39:57.556Z,47.40
2022-09-14T07:41:01.989Z,46.82
2022-09-14T07:42:06.542Z,46.55
2022-09-14T07:43:10.697Z,46.03
2022-09-14T07:44:17.493Z,45.99
2022-09-14T07:45:22.169Z,46.32
2022-09-14T07:46:27.216Z,46.22
2022-09-14T07:47:32.169Z,46.59
2022-09-14T07:48:37.067Z,46.69
2022-09-14T07:49:40.863Z,46.58
2022-09-14T07:50:44.517Z,46.59
2022-09-14T07:51:49.399Z,47.18
2022-09-14T07:52:53.066Z,47.45
2022-09-14T07:53:57.269Z,47.68
2022-09-14T07:55:01.030Z,47.33
2022-09-14T07:56:05.835Z,47.67
2022-09-14T07:57:09.789Z,48.27
2022-09-14T07:58:16.138Z,49.11
2022-09-14T07:59:36.919Z,49.57
2022-09-14T08:00:41.216Z,50.45
2022-09-14T08:01:47.074Z,51.23
2022-09-14T08:02:56.626Z,51.89
2022-09-14T08:04:05.540Z,52.03
2022-09-14T08:05:09.879Z,52.54
2022-09-14T08:06:20.801Z,53.28
2022-09-14T08:07:25.018Z,53.27
2022-09-14T08:08:38.585Z,53.51
2022-09-14T08:09:42.325Z,53.87
2022-09-14T08:10:46.204Z,54.40
2022-09-14T08:11:49.769Z,54.59
2022-09-14T08:12:55.450Z,55.05
2022-09-14T08:14:13.049Z,55.39
2022-09-14T08:15:16.975Z,55.79
2022-09-14T08:16:23.033Z,56.21
2022-09-14T08:17:26.960Z,56.08
2022-09-14T08:18:32.511Z,56.73
2022-09-14T08:19:36.673Z,56.78
2022-09-14T08:20:40.497Z,56.92
2022-09-14T08:21:47.077Z,57.22
2022-09-14T08:22:51.406Z,57.01
2022-09-14T08:23:55.689Z,57.20
2022-09-14T08:24:59.546Z,57.35
2022-09-14T08:26:10.169Z,56.91
2022-09-14T08:27:17.086Z,56.92
2022-09-14T08:28:21.137Z,57.26
2022-09-14T08:29:25.037Z,57.38
2022-09-14T08:30:28.944Z,57.22
2022-09-14T08:31:39.033Z,56.91
2022-09-14T08:32:43.046Z,56.77
2022-09-14T08:33:50.450Z,56.89
2022-09-14T08:34:54.072Z,56.59
2022-09-14T08:35:58.407Z,56.22
2022-09-14T08:37:02.629Z,55.98
2022-09-14T08:38:06.180Z,55.68
2022-09-14T08:39:14.080Z,55.54
2022-09-14T08:40:18.309Z,55.54
2022-09-14T08:41:28.684Z,55.51
2022-09-14T08:42:32.867Z,55.15
2022-09-14T08:43:39.901Z,55.36
2022-09-14T08:44:50.768Z,55.24
2022-09-14T08:46:04.703Z,55.13
2022-09-14T08:47:16.684Z,54.92
2022-09-14T08:48:47.527Z,55.07
2022-09-14T08:50:06.462Z,54.91
2022-09-14T08:51:10.347Z,54.64
2022-09-14T08:52:38.814Z,54.65
2022-09-14T08:53:44.261Z,54.49
2022-09-14T08:54:54.267Z,54.12
2022-09-14T08:56:13.368Z,54.13
2022-09-14T08:57:29.444Z,54.23
2022-09-14T08:59:06.300Z,53.60
2022-09-14T09:00:18.933Z,53.22
2022-09-14T09:02:02.374Z,52.47
2022-09-14T09:03:57.182Z,51.48
2022-09-14T09:05:22.290Z,51.22
2022-09-14T09:06:57.680Z,50.34
2022-09-14T09:08:29.847Z,49.77
2022-09-14T09:09:47.638Z,48.96
2022-09-14T09:10:55.279Z,48.33
2022-09-14T09:12:00.900Z,48.27
2022-09-14T09:13:07.491Z,48.00
2022-09-14T09:14:50.735Z,47.02
2022-09-14T09:16:01.103Z,46.71
2022-09-14T09:17:24.144Z,46.95
2022-09-14T09:19:01.623Z,46.69
2022-09-14T09:20:35.061Z,46.02
2022-09-14T09:21:48.507Z,44.98
2022-09-14T09:23:22.925Z,44.84
2022-09-14T09:24:54.787Z,43.98
2022-09-14T09:26:05.944Z,43.85
2022-09-14T09:27:15.720Z,44.52
2022-09-14T09:28:23.287Z,44.30
2022-09-14T09:29:27.249Z,44.55
2022-09-14T09:30:31.155Z,44.38
2022-09-14T09:31:43.882Z,44.68
2022-09-14T09:32:47.686Z,44.94
2022-09-14T09:33:51.503Z,44.61
2022-09-14T09:34:55.225Z,44.68
2022-09-14T09:36:00.056Z,44.85
2022-09-14T09:37:04.561Z,44.65
2022-09-14T09:38:17.759Z,44.53
2022-09-14T09:39:21.414Z,45.02
2022-09-14T09:40:54.160Z,44.70
2022-09-14T09:42:08.400Z,44.87
2022-09-14T09:43:38.513Z,44.48
2022-09-14T09:45:03.223Z,44.41
2022-09-14T09:46:08.482Z,44.37
2022-09-14T09:47:12.448Z,44.40
2022-09-14T09:48:20.671Z,44.93
2022-09-14T09:49:39.145Z,44.92
2022-09-14T09:51:09.821Z,45.22
2022-09-14T09:52:17.657Z,45.29
2022-09-14T09:53:24.083Z,44.98
2022-09-14T09:54:32.671Z,44.80
2022-09-14T09:55:40.184Z,45.27
2022-09-14T09:56:54.287Z,45.38
2022-09-14T09:57:58.011Z,45.45
2022-09-14T09:59:02.250Z,45.31
2022-09-14T10:00:25.223Z,45.28
2022-09-14T10:01:36.241Z,45.45
2022-09-14T10:02:42.054Z,45.49
2022-09-14T10:04:20.088Z,45.54
2022-09-14T10:05:32.730Z,45.42
2022-09-14T10:06:49.964Z,45.96
2022-09-14T10:08:11.691Z,46.20
2022-09-14T10:09:23.506Z,45.92
2022-09-14T10:10:36.181Z,46.35
2022-09-14T10:11:40.115Z,46.65
2022-09-14T10:12:53.544Z,46.68
2022-09-14T10:13:58.201Z,46.69
2022-09-14T10:15:26.556Z,46.77
2022-09-14T10:16:41.481Z,46.93
2022-09-14T10:18:21.005Z,47.06
2022-09-14T10:19:32.273Z,47.38
2022-09-14T10:20:46.070Z,47.67
2022-09-14T10:22:28.923Z,48.05
2022-09-14T10:23:41.595Z,48.15
2022-09-14T10:25:02.156Z,48.46
2022-09-14T10:26:15.383Z,48.97
2022-09-14T10:27:42.100Z,49.13
2022-09-14T10:28:49.331Z,49.26
2022-09-14T10:29:56.713Z,49.11
2022-09-14T10:31:18.964Z,49.02
2022-09-14T10:32:26.307Z,49.01
2022-09-14T10:33:30.619Z,49.53
2022-09-14T10:34:34.872Z,49.19
2022-09-14T10:35:53.675Z,49.33
2022-09-14T10:37:19.384Z,49.61
2022-09-14T10:38:56.406Z,49.55
2022-09-14T10:40:17.546Z,49.91
2022-09-14T10:41:46.650Z,50.20
2022-09-14T10:43:17.419Z,50.74
2022-09-14T10:44:46.182Z,50.87
2022-09-14T10:46:02.777Z,51.08
2022-09-14T10:48:11.726Z,51.24
2022-09-14T10:49:38.010Z,51.48
2022-09-14T10:51:15.273Z,51.92
2022-09-14T10:52:39.999Z,51.97
2022-09-14T10:54:28.806Z,51.85
2022-09-14T10:57:16.956Z,52.13
2022-09-14T10:59:06.663Z,52.17
2022-09-14T11:00:19.739Z,52.56
2022-09-14T11:02:12.678Z,52.89
2022-09-14T11:03:34.876Z,53.10
2022-09-14T11:04:53.775Z,53.19
2022-09-14T11:06:06.910Z,53.36
2022-09-14T11:07:22.840Z,53.70
2022-09-14T11:08:36.233Z,53.78
2022-09-14T11:10:12.320Z,54.07
2022-09-14T11:11:42.559Z,53.94
2022-09-14T11:12:54.893Z,54.23
2022-09-14T11:14:04.685Z,54.49
2022-09-14T11:15:35.980Z,54.62
2022-09-14T11:17:39.476Z,54.93
2022-09-14T11:19:20.276Z,55.46
2022-09-14T11:20:37.491Z,55.47
2022-09-14T11:22:06.166Z,55.70
2022-09-14T11:24:05.807Z,55.80
2022-09-14T11:25:20.167Z,55.79
2022-09-14T11:26:42.226Z,55.77
2022-09-14T11:28:09.404Z,55.60
2022-09-14T11:29:32.132Z,56.08
2022-09-14T11:30:52.645Z,56.01
2022-09-14T11:32:21.768Z,55.83
2022-09-14T11:33:41.553Z,56.08
2022-09-14T11:35:20.169Z,56.27
2022-09-14T11:36:31.246Z,56.06
2022-09-14T11:37:47.083Z,56.41
2022-09-14T11:39:07.653Z,56.24
2022-09-14T11:41:05.240Z,56.82
2022-09-14T11:42:49.367Z,57.22
2022-09-14T11:44:26.939Z,57.44
2022-09-14T11:45:37.816Z,57.39
2022-09-14T11:47:17.808Z,57.57
2022-09-14T11:48:45.025Z,58.01
2022-09-14T11:50:19.087Z,58.11
2022-09-14T11:51:40.353Z,58.29
2022-09-14T11:52:44.672Z,58.26
2022-09-14T11:53:50.095Z,58.36
2022-09-14T11:54:58.960Z,58.48
2022-09-14T14:54:21.903Z,88.09
2022-09-14T14:55:27.734Z,87.90
2022-09-14T14:56:31.723Z,87.92
2022-09-14T14:57:38.661Z,88.23
2022-09-14T14:58:47.607Z,88.28
2022-09-14T14:59:53.368Z,88.13
2022-09-14T15:00:57.716Z,88.29
2022-09-14T15:02:02.055Z,88.21
2022-09-14T15:03:09.310Z,88.31
2022-09-14T15:04:13.112Z,88.45
2022-09-14T15:05:18.291Z,88.51
2022-09-14T15:06:28.348Z,88.31
2022-09-14T15:07:35.872Z,88.27
2022-09-14T15:08:42.064Z,88.35
2022-09-14T15:09:48.164Z,88.29
2022-09-14T15:10:58.057Z,88.42
2022-09-14T15:12:03.574Z,88.40
2022-09-14T15:13:10.573Z,88.27
2022-09-14T15:14:18.614Z,88.56
2022-09-14T15:15:27.482Z,88.64
2022-09-14T15:16:31.721Z,88.49
2022-09-14T15:17:36.353Z,88.55
2022-09-14T15:18:41.216Z,88.54
2022-09-14T15:19:45.763Z,88.72
2022-09-14T15:20:49.677Z,89.01
2022-09-14T15:21:57.288Z,89.03
2022-09-14T15:23:04.281Z,89.30
2022-09-14T15:24:09.303Z,89.33
2022-09-14T15:25:14.901Z,89.28
2022-09-14T15:26:18.657Z,89.49
2022-09-14T15:27:22.825Z,89.75
2022-09-14T15:28:27.322Z,90.02
2022-09-14T15:29:31.862Z,89.87
2022-09-14T15:30:35.624Z,89.87
2022-09-14T15:31:41.131Z,89.91
2022-09-14T15:32:45.439Z,90.29
2022-09-14T15:33:49.259Z,90.24
2022-09-14T15:34:55.834Z,90.32
2022-09-14T15:35:59.766Z,90.45
2022-09-14T15:37:03.559Z,90.63
2022-09-14T15:38:07.262Z,90.49
2022-09-14T15:39:17.158Z,91.00
2022-09-14T15:40:20.937Z,90.84
2022-09-14T15:41:24.748Z,91.16
2022-09-14T15:42:28.861Z,91.09
2022-09-14T15:43:32.799Z,91.17
2022-09-14T15:44:37.258Z,91.42
2022-09-14T15:45:41.983Z,91.43
2022-09-14T15:46:48.999Z,91.59
2022-09-14T15:47:52.624Z,91.66
2022-09-14T15:48:56.567Z,91.86
2022-09-14T15:50:00.791Z,91.93
2022-09-14T15:51:11.948Z,92.37
2022-09-14T15:52:15.548Z,92.20
2022-09-14T15:53:19.633Z,92.42
2022-09-14T15:54:26.650Z,92.46
2022-09-14T15:55:30.740Z,92.45
2022-09-14T15:56:34.431Z,92.57
2022-09-14T15:57:40.575Z,92.58
2022-09-14T15:58:47.901Z,92.52
2022-09-14T15:59:55.195Z,92.43
2022-09-14T16:00:58.957Z,92.90
2022-09-14T16:02:03.482Z,92.79
2022-09-14T16:03:07.142Z,92.82
2022-09-14T16:04:11.949Z,92.81
2022-09-14T16:05:19.246Z,92.87
2022-09-14T16:06:23.142Z,93.39
2022-09-14T16:07:29.563Z,93.34
2022-09-14T16:08:35.992Z,93.39
2022-09-14T16:09:41.450Z,93.34
2022-09-14T16:10:45.322Z,93.32
2022-09-14T16:11:49.868Z,93.34
2022-09-14T16:12:56.140Z,93.62
2022-09-14T16:13:59.990Z,93.74
2022-09-14T16:15:03.816Z,93.54
2022-09-14T16:16:11.334Z,93.80
2022-09-14T16:17:15.797Z,93.53
2022-09-14T16:18:19.997Z,93.68
2022-09-14T16:19:24.238Z,93.58
2022-09-14T16:20:28.480Z,93.96
2022-09-14T16:21:32.418Z,93.71
2022-09-14T16:22:36.885Z,93.67
2022-09-14T16:23:47.542Z,93.63
2022-09-14T16:24:51.206Z,93.55
2022-09-14T16:25:54.831Z,93.81
2022-09-14T16:26:59.245Z,93.65
2022-09-14T16:28:03.093Z,93.94
2022-09-14T16:29:08.835Z,94.07
2022-09-14T16:30:13.154Z,94.29
2022-09-14T16:31:24.980Z,94.48
2022-09-14T16:32:28.928Z,94.25
2022-09-14T16:33:38.835Z,94.36
2022-09-14T16:34:42.972Z,94.42
2022-09-14T16:35:46.708Z,94.64
2022-09-14T16:36:50.834Z,94.62
2022-09-14T16:37:54.587Z,94.65
2022-09-14T16:39:05.481Z,94.71
2022-09-14T16:40:09.889Z,95.04
2022-09-14T16:41:15.031Z,94.98
2022-09-14T16:42:20.555Z,95.00
2022-09-14T16:43:24.590Z,95.07
2022-09-14T16:44:29.137Z,95.17
2022-09-14T16:45:32.810Z,95.53
2022-09-14T16:46:36.504Z,95.63
2022-09-14T16:47:40.439Z,95.73
2022-09-14T16:48:47.672Z,95.93
2022-09-14T16:49:52.287Z,95.65
2022-09-14T16:50:56.330Z,96.12
2022-09-14T16:52:00.894Z,96.22
2022-09-14T16:53:04.538Z,96.84
2022-09-14T16:54:09.620Z,96.83
2022-09-14T16:55:13.469Z,96.93
2022-09-14T16:56:20.188Z,96.96
2022-09-14T16:57:26.871Z,97.11
2022-09-14T16:58:31.410Z,97.27
2022-09-14T16:59:35.196Z,97.38
2022-09-14T17:00:43.517Z,97.44
2022-09-14T17:01:52.074Z,97.69
2022-09-14T17:02:58.054Z,97.71
2022-09-14T17:04:11.315Z,97.74
2022-09-14T17:05:15.124Z,97.82
2022-09-14T17:06:22.808Z,98.14
2022-09-14T17:07:26.482Z,98.19
2022-09-14T17:08:32.237Z,97.88
2022-09-14T17:09:35.777Z,98.12
2022-09-14T17:10:39.515Z,98.50
2022-09-14T17:11:43.777Z,98.47
2022-09-14T17:12:49.675Z,98.52
2022-09-14T17:13:55.641Z,98.50
2022-09-14T17:14:59.865Z,98.75
2022-09-14T17:16:08.024Z,98.74
2022-09-14T17:17:11.692Z,98.85
2022-09-14T17:18:15.411Z,99.14
2022-09-14T17:19:19.488Z,99.11
2022-09-14T17:20:23.182Z,99.19
2022-09-14T17:21:32.004Z,99.40
2022-09-14T17:22:35.763Z,99.35
2022-09-14T17:23:41.810Z,99.46
2022-09-14T17:24:45.894Z,99.65
2022-09-14T17:25:50.333Z,99.67
2022-09-14T17:26:54.142Z,99.80
2022-09-14T17:27:58.215Z,99.85
2022-09-14T17:29:04.033Z,100.00
2022-09-14T17:30:08.721Z,100.00
2022-09-14T17:31:17.436Z,100.00
2022-09-14T17:32:21.203Z,100.00
2022-09-14T17:33:26.873Z,100.00
2022-09-14T17:34:34.120Z,100.00
2022-09-14T17:35:39.297Z,100.00
2022-09-14T17:36:43.650Z,100.00
2022-09-14T17:37:47.656Z,100.00
2022-09-14T17:38:52.735Z,100.00
2022-09-14T17:39:56.565Z,100.00
2022-09-14T17:41:07.638Z,100.00
2022-09-14T17:42:16.391Z,100.00
2022-09-14T17:43:23.232Z,100.00
2022-09-14T17:44:31.335Z,100.00
2022-09-14T17:45:35.142Z,100.00
2022-09-14T17:46:49.536Z,100.00
2022-09-14T17:47:54.731Z,100.00
2022-09-14T17:49:00.919Z,100.00
2022-09-14T17:50:05.220Z,100.00
2022-09-14T17:51:22.979Z,100.00
2022-09-14T17:52:26.743Z,100.00
2022-09-14T17:53:30.434Z,100.00
2022-09-14T17:54:34.341Z,100.00
2022-09-14T17:55:38.153Z,100.00
2022-09-14T17:56:46.350Z,100.00
2022-09-14T17:57:50.420Z,100.00
2022-09-14T17:59:12.919Z,100.00
2022-09-14T18:00:24.243Z,100.00
2022-09-14T18:01:28.795Z,100.00
2022-09-14T18:02:32.554Z,100.00